Time,TemperatureF,DewpointF,PressureIn,WindDirection,WindDirectionDegrees,WindSpeedMPH,WindSpeedGustMPH,Humidity,HourlyPrecipIn,Conditions,Clouds,dailyrainin,SolarRadiationWatts/m^2,SoftwareType,DateUTC
2013-04-25 00:03:00,48.0,46.0,-100.00,NW,305,6.0,18.0,93,0.00,,,0.19,0.000000,,2013-04-25 04:03:00,
2013-04-25 00:33:00,46.0,44.0,-100.00,NW,312,10.0,19.0,92,0.00,,,0.19,0.000000,,2013-04-25 04:33:00,
2013-04-25 00:43:00,46.0,44.0,-100.00,NW,312,10.0,19.0,92,0.00,,,0.19,0.000000,,2013-04-25 04:43:00,
2013-04-25 00:52:00,46.0,44.0,-100.00,NW,312,10.0,19.0,92,0.00,,,0.19,0.000000,,2013-04-25 04:52:00,
2013-04-25 01:03:00,46.0,44.0,-100.00,NW,312,10.0,19.0,92,0.00,,,0.19,0.000000,,2013-04-25 05:03:00,
2013-04-25 01:32:00,44.0,41.0,-100.00,WNW,301,9.0,18.0,89,0.00,,,0.19,0.000000,,2013-04-25 05:32:00,
2013-04-25 01:42:00,44.0,41.0,-100.00,WNW,301,9.0,18.0,89,0.00,,,0.19,0.000000,,2013-04-25 05:42:00,
2013-04-25 01:52:00,44.0,41.0,-100.00,WNW,301,9.0,18.0,89,0.00,,,0.19,0.000000,,2013-04-25 05:52:00,
2013-04-25 02:02:00,44.0,41.0,-100.00,WNW,301,9.0,18.0,89,0.00,,,0.19,0.000000,,2013-04-25 06:02:00,
2013-04-25 03:32:00,43.0,41.0,-100.00,NW,310,7.0,12.0,91,-99.99,,,0.19,0.000000,,2013-04-25 07:32:00,
2013-04-25 03:42:00,43.0,41.0,-100.00,NW,310,7.0,12.0,91,-99.99,,,0.19,0.000000,,2013-04-25 07:42:00,
2013-04-25 03:52:00,43.0,41.0,-100.00,NW,310,7.0,12.0,91,-99.99,,,0.19,0.000000,,2013-04-25 07:52:00,
2013-04-25 04:02:00,43.0,41.0,-100.00,NW,310,7.0,12.0,91,-99.99,,,0.19,0.000000,,2013-04-25 08:02:00,
2013-04-25 04:32:00,43.0,40.0,-100.00,WNW,296,7.0,12.0,88,0.00,,,0.19,0.000000,,2013-04-25 08:32:00,
2013-04-25 04:42:00,43.0,40.0,-100.00,WNW,296,7.0,12.0,88,0.00,,,0.19,0.000000,,2013-04-25 08:42:00,
2013-04-25 04:52:00,43.0,40.0,-100.00,WNW,296,7.0,12.0,88,0.00,,,0.19,0.000000,,2013-04-25 08:52:00,
2013-04-25 05:01:00,43.0,40.0,-100.00,WNW,296,7.0,12.0,88,0.00,,,0.19,0.000000,,2013-04-25 09:01:00,
2013-04-25 05:33:00,40.0,38.0,-100.00,West,277,4.0,9.0,92,0.00,,,0.19,0.000000,,2013-04-25 09:33:00,
2013-04-25 05:42:00,40.0,38.0,-100.00,West,277,4.0,9.0,92,0.00,,,0.19,0.000000,,2013-04-25 09:42:00,
2013-04-25 05:53:00,40.0,38.0,-100.00,West,277,4.0,9.0,92,0.00,,,0.19,0.000000,,2013-04-25 09:53:00,
2013-04-25 06:03:00,40.0,38.0,-100.00,West,277,4.0,9.0,92,0.00,,,0.19,0.000000,,2013-04-25 10:03:00,
2013-04-25 06:33:00,38.0,36.0,-100.00,WNW,297,3.0,7.0,92,0.00,,,0.19,0.000000,,2013-04-25 10:33:00,
2013-04-25 06:42:00,38.0,36.0,-100.00,WNW,297,3.0,7.0,92,0.00,,,0.19,0.000000,,2013-04-25 10:42:00,
2013-04-25 06:53:00,38.0,36.0,-100.00,WNW,297,3.0,7.0,92,0.00,,,0.19,0.000000,,2013-04-25 10:53:00,
2013-04-25 07:02:00,38.0,36.0,-100.00,WNW,297,3.0,7.0,92,0.00,,,0.19,0.000000,,2013-04-25 11:02:00,
2013-04-25 07:33:00,36.0,34.0,-100.00,WNW,287,2.0,5.0,94,0.00,,,0.19,2.000000,,2013-04-25 11:33:00,
2013-04-25 07:42:00,36.0,34.0,-100.00,WNW,287,2.0,5.0,94,0.00,,,0.19,2.000000,,2013-04-25 11:42:00,
2013-04-25 07:52:00,36.0,34.0,-100.00,WNW,287,2.0,5.0,94,0.00,,,0.19,2.000000,,2013-04-25 11:52:00,
2013-04-25 08:01:00,36.0,34.0,-100.00,WNW,287,2.0,5.0,94,0.00,,,0.19,2.000000,,2013-04-25 12:01:00,
2013-04-25 09:32:00,43.0,39.0,-100.00,NNW,348,5.0,7.0,87,-99.99,,,-99.99,232.000000,,2013-04-25 13:32:00,
2013-04-25 09:42:00,43.0,39.0,-100.00,NNW,348,5.0,7.0,87,-99.99,,,-99.99,232.000000,,2013-04-25 13:42:00,
2013-04-25 09:53:00,43.0,39.0,-100.00,NNW,348,5.0,7.0,87,-99.99,,,-99.99,232.000000,,2013-04-25 13:53:00,
2013-04-25 10:02:00,43.0,39.0,-100.00,NNW,348,5.0,7.0,87,-99.99,,,-99.99,232.000000,,2013-04-25 14:02:00,
2013-04-25 10:32:00,47.0,41.0,-100.00,NW,311,8.0,14.0,78,0.00,,,-99.99,578.000000,,2013-04-25 14:32:00,
2013-04-25 10:42:00,47.0,41.0,-100.00,NW,311,8.0,14.0,78,0.00,,,-99.99,578.000000,,2013-04-25 14:42:00,
2013-04-25 10:52:00,47.0,41.0,-100.00,NW,311,8.0,14.0,78,0.00,,,-99.99,578.000000,,2013-04-25 14:52:00,
2013-04-25 11:02:00,47.0,41.0,-100.00,NW,311,8.0,14.0,78,0.00,,,-99.99,578.000000,,2013-04-25 15:02:00,
2013-04-25 11:33:00,50.0,39.0,-100.00,NW,318,9.0,14.0,65,0.00,,,0.19,832.000000,,2013-04-25 15:33:00,
2013-04-25 11:42:00,50.0,39.0,-100.00,NW,318,9.0,14.0,65,0.00,,,0.19,832.000000,,2013-04-25 15:42:00,
2013-04-25 11:53:00,50.0,39.0,-100.00,NW,318,9.0,14.0,65,0.00,,,0.19,832.000000,,2013-04-25 15:53:00,
2013-04-25 12:02:00,50.0,39.0,-100.00,NW,318,9.0,14.0,65,0.00,,,0.19,832.000000,,2013-04-25 16:02:00,
2013-04-25 12:33:00,54.0,39.0,-100.00,NW,315,7.0,14.0,57,0.00,,,-99.99,1001.000000,,2013-04-25 16:33:00,
2013-04-25 12:43:00,54.0,39.0,-100.00,NW,315,7.0,14.0,57,0.00,,,-99.99,1001.000000,,2013-04-25 16:43:00,
2013-04-25 12:53:00,54.0,39.0,-100.00,NW,315,7.0,14.0,57,0.00,,,-99.99,1001.000000,,2013-04-25 16:53:00,
2013-04-25 13:02:00,54.0,39.0,-100.00,NW,315,7.0,14.0,57,0.00,,,-99.99,1001.000000,,2013-04-25 17:02:00,
2013-04-25 13:32:00,58.0,38.0,-100.00,NW,315,9.0,14.0,48,0.00,,,0.19,1105.000000,,2013-04-25 17:32:00,
2013-04-25 13:42:00,58.0,38.0,-100.00,NW,315,9.0,14.0,48,0.00,,,0.19,1105.000000,,2013-04-25 17:42:00,
2013-04-25 13:53:00,58.0,38.0,-100.00,NW,315,9.0,14.0,48,0.00,,,0.19,1105.000000,,2013-04-25 17:53:00,
2013-04-25 14:02:00,58.0,38.0,-100.00,NW,315,9.0,14.0,48,0.00,,,0.19,1105.000000,,2013-04-25 18:02:00,
2013-04-25 14:32:00,61.0,34.0,-100.00,WNW,299,9.0,15.0,36,0.00,,,0.19,1131.000000,,2013-04-25 18:32:00,
2013-04-25 14:43:00,61.0,34.0,-100.00,WNW,299,9.0,15.0,36,0.00,,,0.19,1131.000000,,2013-04-25 18:43:00,
2013-04-25 14:53:00,61.0,34.0,-100.00,WNW,299,9.0,15.0,36,0.00,,,0.19,1131.000000,,2013-04-25 18:53:00,
2013-04-25 15:02:00,61.0,34.0,-100.00,WNW,299,9.0,15.0,36,0.00,,,0.19,1131.000000,,2013-04-25 19:02:00,
2013-04-25 15:32:00,63.0,31.0,-100.00,WNW,302,10.0,18.0,30,0.00,,,0.19,1094.000000,,2013-04-25 19:32:00,
2013-04-25 15:42:00,63.0,31.0,-100.00,WNW,302,10.0,18.0,30,0.00,,,0.19,1094.000000,,2013-04-25 19:42:00,
2013-04-25 15:52:00,63.0,31.0,-100.00,WNW,302,10.0,18.0,30,0.00,,,0.19,1094.000000,,2013-04-25 19:52:00,
2013-04-25 16:02:00,63.0,31.0,-100.00,WNW,302,10.0,18.0,30,0.00,,,0.19,1094.000000,,2013-04-25 20:02:00,
2013-04-25 16:32:00,63.0,22.0,-100.00,WNW,300,12.0,19.0,21,0.00,,,0.03,991.000000,,2013-04-25 20:32:00,
2013-04-25 16:43:00,63.0,22.0,-100.00,WNW,300,12.0,19.0,21,0.00,,,0.03,991.000000,,2013-04-25 20:43:00,
2013-04-25 16:52:00,63.0,22.0,-100.00,WNW,300,12.0,19.0,21,0.00,,,0.03,991.000000,,2013-04-25 20:52:00,
2013-04-25 17:01:00,63.0,22.0,-100.00,WNW,300,12.0,19.0,21,0.00,,,0.03,991.000000,,2013-04-25 21:01:00,
2013-04-25 17:33:00,63.0,26.0,-100.00,NW,307,13.0,18.0,24,0.00,,,0.01,815.000000,,2013-04-25 21:33:00,
2013-04-25 17:42:00,63.0,26.0,-100.00,NW,307,13.0,18.0,24,0.00,,,0.01,815.000000,,2013-04-25 21:42:00,
2013-04-25 17:53:00,63.0,26.0,-100.00,NW,307,13.0,18.0,24,0.00,,,0.01,815.000000,,2013-04-25 21:53:00,
2013-04-25 18:03:00,63.0,26.0,-100.00,NW,307,13.0,18.0,24,0.00,,,0.01,815.000000,,2013-04-25 22:03:00,
2013-04-25 18:33:00,63.0,27.0,-100.00,NW,320,11.0,18.0,25,0.00,,,0.01,595.000000,,2013-04-25 22:33:00,
2013-04-25 18:42:00,63.0,27.0,-100.00,NW,320,11.0,18.0,25,0.00,,,0.01,595.000000,,2013-04-25 22:42:00,
2013-04-25 18:53:00,63.0,27.0,-100.00,NW,320,11.0,18.0,25,0.00,,,0.01,595.000000,,2013-04-25 22:53:00,
2013-04-25 19:02:00,63.0,27.0,-100.00,NW,320,11.0,18.0,25,0.00,,,0.01,595.000000,,2013-04-25 23:02:00,
2013-04-25 19:32:00,61.0,26.0,-100.00,NW,312,9.0,19.0,26,0.00,,,0.01,349.000000,,2013-04-25 23:32:00,
2013-04-25 19:42:00,61.0,26.0,-100.00,NW,312,9.0,19.0,26,0.00,,,0.01,349.000000,,2013-04-25 23:42:00,
2013-04-25 19:52:00,61.0,26.0,-100.00,NW,312,9.0,19.0,26,0.00,,,0.01,349.000000,,2013-04-25 23:52:00,
2013-04-25 20:01:00,61.0,26.0,-100.00,NW,312,9.0,19.0,26,0.00,,,0.01,349.000000,,2013-04-26 00:01:00,
2013-04-25 20:32:00,58.0,28.0,-100.00,NNW,336,6.0,17.0,31,0.00,,,0.01,112.000000,,2013-04-26 00:32:00,
2013-04-25 20:42:00,58.0,28.0,-100.00,NNW,336,6.0,17.0,31,0.00,,,0.01,112.000000,,2013-04-26 00:42:00,
2013-04-25 20:52:00,58.0,28.0,-100.00,NNW,336,6.0,17.0,31,0.00,,,0.01,112.000000,,2013-04-26 00:52:00,
2013-04-25 21:01:00,58.0,28.0,-100.00,NNW,336,6.0,17.0,31,0.00,,,0.01,112.000000,,2013-04-26 01:01:00,
2013-04-25 21:32:00,50.0,30.0,-100.00,WNW,288,1.0,9.0,46,0.00,,,0.00,3.000000,,2013-04-26 01:32:00,
2013-04-25 21:42:00,50.0,30.0,-100.00,WNW,288,1.0,9.0,46,0.00,,,0.00,3.000000,,2013-04-26 01:42:00,
2013-04-25 21:52:00,50.0,30.0,-100.00,WNW,288,1.0,9.0,46,0.00,,,0.00,3.000000,,2013-04-26 01:52:00,
2013-04-25 22:02:00,50.0,30.0,-100.00,WNW,288,1.0,9.0,46,0.00,,,0.00,3.000000,,2013-04-26 02:02:00,
2013-04-25 22:32:00,47.0,31.0,-100.00,SSE,157,1.0,4.0,54,0.00,,,0.00,0.000000,,2013-04-26 02:32:00,
2013-04-25 22:42:00,47.0,31.0,-100.00,SSE,157,1.0,4.0,54,0.00,,,0.00,0.000000,,2013-04-26 02:42:00,
2013-04-25 22:52:00,47.0,31.0,-100.00,SSE,157,1.0,4.0,54,0.00,,,0.00,0.000000,,2013-04-26 02:52:00,
2013-04-25 23:01:00,47.0,31.0,-100.00,SSE,157,1.0,4.0,54,0.00,,,0.00,0.000000,,2013-04-26 03:01:00,
2013-04-25 23:33:00,43.0,30.0,-100.00,WNW,284,1.0,3.0,61,0.00,,,0.00,0.000000,,2013-04-26 03:33:00,
2013-04-25 23:43:00,43.0,30.0,-100.00,WNW,284,1.0,3.0,61,0.00,,,0.00,0.000000,,2013-04-26 03:43:00,
2013-04-25 23:53:00,43.0,30.0,-100.00,WNW,284,1.0,3.0,61,0.00,,,0.00,0.000000,,2013-04-26 03:53:00,